• Join FlightAware (Why Join?)
  • Login
  • US Flag 
01:47AM EDT


 

Airport Tracker/Info


-or-


 

Live Flight TrackerFlight Track Log ✈ EJA122 ✈ 19-Jul-2013 ✈ KLUK - KDLH

Flight Track Log - Related Links

Times and Time Zones

All times are in EDT time to prevent confusion due to time zone crossing. See the EJA122 flight status page for this flight to view local times or setup timezone preferences in your user account.

Time Position Orientation Groundspeed Altitude Reporting Facility
EDT Latitude Longitude Course Direction KTS MPH feet Rate Location/Type
11:23AM 39.0833 -84.4167 207° Southwest 163 188 1,100  Level Cincinnati TRACON
11:24AM 39.0333 -84.4500 207° Southwest 218 251 2,500 1,080 Climbing Cincinnati TRACON
11:25AM 38.9667 -84.4833 201° Southwest 258 297 3,600 1,920 Climbing Cincinnati TRACON
11:26AM 38.9500 -84.5500 252° West 263 303 6,200 2,700 Climbing Cincinnati TRACON
11:26AM 38.9786 -84.5900 313° West 266 306 7,500 2,340 Climbing Indianapolis Center
11:28AM 39.0303 -84.6539 316° Northwest 255 293 9,900 2,160 Climbing Indianapolis Center
11:29AM 39.0853 -84.7211 317° Northwest 265 305 12,000 1,980 Climbing Indianapolis Center
11:30AM 39.1447 -84.7844 320° Northwest 272 313 14,000 1,680 Climbing Indianapolis Center
11:31AM 39.2147 -84.8408 328° Northwest 289 333 15,500 1,440 Climbing Indianapolis Center
11:32AM 39.2939 -84.8942 332° Northwest 322 371 17,000 1,380 Climbing Indianapolis Center
11:33AM 39.3839 -84.9389 339° North 344 396 18,400 1,500 Climbing Indianapolis Center
11:34AM 39.4947 -84.9914 340° North 354 407 20,200 1,560 Climbing Indianapolis Center
11:35AM 39.5889 -85.0322 342° North 358 412 21,700 1,320 Climbing Indianapolis Center
11:36AM 39.6831 -85.0769 340° North 361 415 23,000 1,080 Climbing Indianapolis Center
11:37AM 39.7797 -85.1231 340° North 369 425 24,000 480 Climbing Indianapolis Center
11:38AM 39.8806 -85.1711 340° North 383 441 24,000  Level Indianapolis Center
11:39AM 40.0111 -85.2339 340° North 414 476 24,000 300 Level Indianapolis Center
11:40AM 40.1114 -85.3111 330° Northwest 420 483 24,700 780 Climbing Indianapolis Center
11:41AM 40.2047 -85.3931 326° Northwest 409 471 25,600 900 Climbing Indianapolis Center
11:42AM 40.2969 -85.4750 326° Northwest 404 465 26,600 960 Climbing Indianapolis Center
11:43AM 40.3881 -85.5561 326° Northwest 400 460 27,600 960 Climbing Indianapolis Center
11:44AM 40.4589 -85.6194 326° Northwest 398 458 28,400 1,080 Climbing Chicago Center
11:45AM 40.5661 -85.7156 326° Northwest 394 453 29,600 1,020 Climbing Chicago Center
11:46AM 40.6561 -85.7972 325° Northwest 394 453 30,600 960 Climbing Chicago Center
11:47AM 40.7508 -85.8864 325° Northwest 392 451 31,700 960 Climbing Chicago Center
11:48AM 40.8400 -85.9661 326° Northwest 390 449 32,600 900 Climbing Chicago Center
11:49AM 40.9275 -86.0478 325° Northwest 385 443 33,600 660 Climbing Chicago Center
11:50AM 41.0142 -86.1281 325° Northwest 380 437 34,000 180 Climbing Chicago Center
11:51AM 41.1058 -86.2117 326° Northwest 395 455 34,000  Level Chicago Center
11:52AM 41.2014 -86.3011 325° Northwest 414 476 34,000  Level Chicago Center
11:53AM 41.2967 -86.3906 325° Northwest 418 481 34,000  Level Chicago Center
11:54AM 41.4158 -86.5008 325° Northwest 431 496 34,000  Level Chicago Center
11:55AM 41.5161 -86.5964 325° Northwest 440 506 34,000  Level Chicago Center
11:56AM 41.6172 -86.6906 325° Northwest 443 510 34,000  Level Chicago Center
11:57AM 41.7172 -86.7833 325° Northwest 439 505 34,000  Level Chicago Center
11:58AM 41.8167 -86.8772 325° Northwest 441 507 34,000  Level Chicago Center
11:59AM 41.9383 -86.9931 325° Northwest 446 513 34,000  Level Chicago Center
12:00PM 42.0386 -87.0908 324° Northwest 446 513 34,000  Level Chicago Center
12:01PM 42.1364 -87.1814 326° Northwest 436 502 34,000  Level Chicago Center
12:02PM 42.2364 -87.2781 324° Northwest 443 510 34,000  Level Chicago Center
12:03PM 42.3375 -87.3764 324° Northwest 450 518 34,000  Level Chicago Center
12:04PM 42.4586 -87.4931 325° Northwest 450 518 34,000  Level Chicago Center
12:06PM 42.5578 -87.5906 324° Northwest 446 513 34,000  Level Chicago Center
12:07PM 42.6608 -87.6914 324° Northwest 446 513 34,000  Level Chicago Center
12:08PM 42.7617 -87.7911 324° Northwest 449 517 34,000  Level Chicago Center
12:09PM 42.8597 -87.8869 324° Northwest 435 501 34,000  Level Chicago Center
12:10PM 42.9567 -87.9833 324° Northwest 429 494 34,000  Level Chicago Center
12:11PM 43.0706 -88.0975 324° Northwest 433 498 34,000  Level Chicago Center
12:12PM 43.1686 -88.1956 324° Northwest 434 499 34,000  Level Chicago Center
12:13PM 43.2672 -88.2953 324° Northwest 438 504 34,000  Level Chicago Center
12:14PM 43.3647 -88.3922 324° Northwest 433 498 34,000  Level Chicago Center
12:15PM 43.4825 -88.5122 324° Northwest 450 518 34,000  Level Chicago Center
12:16PM 43.5706 -88.6019 324° Northwest 438 504 34,000  Level Chicago Center
12:17PM 43.6617 -88.6961 323° Northwest 419 482 34,000  Level Chicago Center
12:18PM 43.7542 -88.7911 323° Northwest 414 476 34,000  Level Chicago Center
12:19PM 43.8594 -88.8994 323° Northwest 406 467 34,000  Level Chicago Center
12:20PM 43.9528 -88.9950 324° Northwest 415 478 34,000  Level Chicago Center
12:21PM 44.0453 -89.0908 323° Northwest 415 478 34,000  Level Chicago Center
12:22PM 44.1386 -89.1892 323° Northwest 419 482 34,000  Level Chicago Center
12:23PM 44.2328 -89.2875 323° Northwest 423 487 34,000  Level Chicago Center
12:24PM 44.3425 -89.4031 323° Northwest 423 487 34,000  Level Chicago Center
12:25PM 44.4364 -89.5008 323° Northwest 422 486 34,000  Level Chicago Center
12:26PM 44.5292 -89.6003 323° Northwest 420 483 34,000  Level Chicago Center
12:27PM 44.6225 -89.6986 323° Northwest 420 483 34,000  Level Chicago Center
12:28PM 44.7139 -89.7975 322° Northwest 414 476 34,000  Level Chicago Center
12:29PM 44.8208 -89.9119 323° Northwest 414 476 34,000  Level Chicago Center
12:30PM 44.9119 -90.0117 322° Northwest 414 476 34,000  Level Chicago Center
12:31PM 45.0042 -90.1092 323° Northwest 413 475 34,000  Level Chicago Center
12:33PM 45.1233 -90.2414 322° Northwest 411 473 34,000  Level Minneapolis Center
12:34PM 45.2325 -90.3603 323° Northwest 410 472 34,000  Level Minneapolis Center
12:35PM 45.3225 -90.4600 322° Northwest 409 471 34,000  Level Minneapolis Center
12:36PM 45.4114 -90.5575 322° Northwest 404 465 34,000 -540 Level Minneapolis Center
12:37PM 45.5003 -90.6583 322° Northwest 406 467 32,900 -1,500 Descending Minneapolis Center
12:38PM 45.5903 -90.7553 323° Northwest 405 466 30,900 -1,920 Descending Minneapolis Center
12:39PM 45.6767 -90.8531 322° Northwest 397 457 29,000 -2,100 Descending Minneapolis Center
12:40PM 45.7875 -90.9772 322° Northwest 418 481 26,600 -2,220 Descending Minneapolis Center
12:41PM 45.8797 -91.0814 322° Northwest 420 483 24,500 -1,260 Descending Minneapolis Center
12:42PM 45.9711 -91.1844 322° Northwest 418 481 24,000 -1,320 Descending Minneapolis Center
12:43PM 46.0586 -91.2856 321° Northwest 408 470 21,800 -2,220 Descending Minneapolis Center
12:45PM 46.2289 -91.4783 322° Northwest 386 444 17,300 -2,400 Descending Minneapolis Center
12:46PM 46.3264 -91.5842 323° Northwest 368 423 14,500 -1,980 Descending Minneapolis Center
12:48PM 46.4058 -91.6558 328° Northwest 363 418 12,900 -1,560 Descending Minneapolis Center
12:49PM 46.4892 -91.7339 327° Northwest 357 411 11,000 -1,920 Descending Minneapolis Center
12:50PM 46.5800 -91.8136 329° Northwest 324 373 9,000 -1,680 Descending Minneapolis Center
12:51PM 46.6389 -91.8697 327° Northwest 269 310 7,600 -1,500 Descending Minneapolis Center
12:52PM 46.7117 -91.9353 328° Northwest 260 299 6,000 -1,320 Descending Minneapolis Center
12:53PM 46.7656 -91.9828 329° Northwest 246 283 4,900 -1,020 Descending Minneapolis Center
12:54PM 46.8014 -92.0169 327° Northwest 223 257 4,000 -1,020 Descending Minneapolis Center
12:55PM 46.8389 -92.0775 312° West 193 222 2,900 -960 Descending Minneapolis Center
12:56PM 46.8406 -92.1319 273° West 154 177 2,000 -900 Descending Minneapolis Center
12:58PM 46.8333 -92.1833 326° Northwest  Level FlightAware Approximate
01:05PM 46.8421 -92.1936 326° Northwest  Level Estimated
01:06PM 46.8421 -92.1936 326° Northwest  Level Estimated